• Join FlightAware (Why Join?)
  • Login
  • US Flag 
02:37AM EDT


 

Airport Tracker/Info


-or-


 

Live Flight TrackerFlight Track Log ✈ DAL4165 ✈ 22-Sep-2013 ✈ KMHT - KDTW

Flight Track Log - Related Links

Times and Time Zones

All times are in EDT time to prevent confusion due to time zone crossing. See the DAL4165 flight status page for this flight to view local times or setup timezone preferences in your user account.

Time Position Orientation Groundspeed Altitude Reporting Facility
EDT Latitude Longitude Course Direction KTS MPH feet Rate Location/Type
07:10AM 42.9167 -71.4167 250° West 153 176 1,100  Level KA90
07:11AM 42.8947 -71.4992 250° West 178 205 3,900 1,800 Climbing Boston Center
07:12AM 42.9014 -71.5756 277° West 218 251 5,500 2,160 Climbing Boston Center
07:13AM 42.9125 -71.6803 278° West 257 296 8,300 2,520 Climbing Boston Center
07:14AM 42.9194 -71.7653 276° West 257 296 10,500 1,680 Climbing Boston Center
07:15AM 42.9264 -71.8872 274° West 279 321 11,700 1,200 Climbing Boston Center
07:16AM 42.9350 -71.9947 276° West 316 364 13,000 1,440 Climbing Boston Center
07:17AM 42.9439 -72.1308 275° West 329 379 14,700 1,440 Climbing Boston Center
07:18AM 42.9525 -72.2444 276° West 334 384 15,900 1,140 Climbing Boston Center
07:19AM 42.9631 -72.3778 276° West 340 391 17,000 1,140 Climbing Boston Center
07:20AM 42.9736 -72.5083 276° West 346 398 18,300 1,080 Climbing Boston Center
07:21AM 42.9817 -72.6558 274° West 351 404 19,200 840 Climbing Boston Center
07:22AM 42.9917 -72.7919 276° West 351 404 20,000 780 Climbing Boston Center
07:23AM 42.9994 -72.9311 274° West 358 412 20,800 720 Climbing Boston Center
07:24AM 43.0094 -73.0592 276° West 376 433 21,500 780 Climbing Boston Center
07:25AM 43.0169 -73.1983 274° West 376 433 22,400 840 Climbing Boston Center
07:26AM 43.0264 -73.3347 275° West 371 427 23,300 840 Climbing Boston Center
07:27AM 43.0314 -73.4739 273° West 366 421 24,100 720 Climbing Boston Center
07:28AM 43.0383 -73.6133 274° West 366 421 24,800 600 Climbing Boston Center
07:29AM 43.0472 -73.7528 275° West 366 421 25,400 540 Climbing Boston Center
07:30AM 43.0558 -73.8950 275° West 366 421 26,000 660 Climbing Boston Center
07:31AM 43.0644 -74.0428 275° West 371 427 26,700 600 Climbing Boston Center
07:32AM 43.0706 -74.1853 273° West 377 434 27,300 540 Climbing Boston Center
07:33AM 43.0786 -74.3306 274° West 383 441 27,900 600 Climbing Boston Center
07:34AM 43.0867 -74.4728 274° West 383 441 28,500 600 Climbing Boston Center
07:35AM 43.0922 -74.6181 273° West 383 441 29,100 600 Climbing Boston Center
07:36AM 43.1000 -74.7606 274° West 383 441 29,700 420 Climbing Boston Center
07:37AM 43.1075 -74.9031 274° West 383 441 30,000 120 Climbing Boston Center
07:38AM 43.1147 -75.0483 274° West 383 441 30,000  Level Boston Center
07:39AM 43.1194 -75.1964 273° West 388 447 30,000  Level Boston Center
07:40AM 43.1283 -75.3478 275° West 394 453 30,000 -60 Level Boston Center
07:41AM 43.1347 -75.4961 273° West 394 453 29,900  Descending Boston Center
07:42AM 43.1392 -75.6414 272° West 394 453 30,000  Climbing Boston Center
07:44AM 43.1500 -75.9303 273° West 378 435 30,000  Level Cleveland Center
07:45AM 43.1556 -76.0725 273° West 374 430 30,000  Level Cleveland Center
07:46AM 43.1586 -76.2136 272° West 372 428 30,000  Level Cleveland Center
07:47AM 43.1453 -76.3536 263° West 373 429 30,000  Level Cleveland Center
07:48AM 43.1350 -76.4939 264° West 371 427 30,000  Level Cleveland Center
07:49AM 43.1222 -76.6344 263° West 372 428 30,000  Level Cleveland Center
07:50AM 43.1078 -76.8039 263° West 376 433 30,000  Level Cleveland Center
07:51AM 43.0953 -76.9431 263° West 373 429 30,000  Level Cleveland Center
07:52AM 43.0819 -77.0806 262° West 369 425 30,000  Level Cleveland Center
07:53AM 43.0703 -77.2211 264° West 373 429 30,000  Level Cleveland Center
07:54AM 43.0564 -77.3597 262° West 371 427 30,000  Level Cleveland Center
07:55AM 43.0428 -77.4997 262° West 375 432 30,000  Level Cleveland Center
07:56AM 43.0303 -77.6394 263° West 375 432 30,000  Level Cleveland Center
07:57AM 43.0158 -77.7794 262° West 377 434 30,000  Level Cleveland Center
07:58AM 43.0019 -77.9217 262° West 381 438 30,000  Level Cleveland Center
07:59AM 42.9861 -78.0925 263° West 383 441 30,000  Level Cleveland Center
08:00AM 42.9711 -78.2367 262° West 389 448 30,000  Level Cleveland Center
08:01AM 42.9561 -78.3819 262° West 390 449 30,000  Level Cleveland Center
08:02AM 42.9417 -78.5261 262° West 386 444 30,000  Level Cleveland Center
08:03AM 42.9256 -78.6725 262° West 392 451 30,000  Level Cleveland Center
08:04AM 42.9047 -78.8169 259° West 391 450 30,000  Level Cleveland Center
08:05AM 42.8833 -78.9608 259° West 391 450 30,000  Level Cleveland Center
08:06AM 42.8625 -79.1067 259° West 390 449 30,000  Level Cleveland Center
08:07AM 42.8406 -79.2522 258° West 393 452 30,000  Level Cleveland Center
08:08AM 42.8189 -79.3964 258° West 390 449 30,000  Level Cleveland Center
08:09AM 42.7933 -79.5700 259° West 390 449 30,000  Level Cleveland Center
08:10AM 42.7703 -79.7167 258° West 395 455 30,000  Level Cleveland Center
08:11AM 42.7489 -79.8614 259° West 393 452 30,000  Level Cleveland Center
08:12AM 42.7444 -80.0056 268° West 394 453 30,000 -300 Level Cleveland Center
08:13AM 42.7375 -80.1578 266° West 400 460 29,500 -780 Descending Cleveland Center
08:14AM 42.7300 -80.3142 266° West 415 478 28,500 -780 Descending Cleveland Center
08:16AM 42.7222 -80.4772 266° West 428 493 28,000 -300 Descending Cleveland Center
08:17AM 42.7153 -80.6375 267° West 424 488 28,000 -180 Level Cleveland Center
08:18AM 42.7094 -80.7994 267° West 426 490 27,700 -900 Descending Cleveland Center
08:19AM 42.6986 -80.9558 265° West 417 480 26,200 -1,500 Descending Cleveland Center
08:20AM 42.6800 -81.1053 260° West 405 466 24,700 -1,620 Descending Cleveland Center
08:21AM 42.6608 -81.2767 261° West 393 452 23,000 -1,500 Descending Cleveland Center
08:22AM 42.6444 -81.4200 261° West 386 444 21,700 -1,260 Descending Cleveland Center
08:23AM 42.6281 -81.5561 261° West 369 425 20,500 -1,200 Descending Cleveland Center
08:24AM 42.6122 -81.6894 261° West 360 414 19,300 -1,260 Descending Cleveland Center
08:25AM 42.5956 -81.8286 261° West 359 413 18,000 -1,260 Descending Cleveland Center
08:26AM 42.5797 -81.9608 261° West 358 412 16,800 -1,140 Descending Cleveland Center
08:27AM 42.5642 -82.0925 261° West 356 410 15,700 -1,080 Descending Cleveland Center
08:28AM 42.5478 -82.2233 260° West 354 407 14,700 -1,080 Descending Cleveland Center
08:29AM 42.5350 -82.3350 261° West 350 403 13,800 -1,140 Descending Cleveland Center
08:29AM 42.5275 -82.3850 259° West 347 399 13,400 -1,080 Descending Cleveland Center
08:30AM 42.5125 -82.5103 261° West 333 383 12,300 -780 Descending Cleveland Center
08:31AM 42.4889 -82.5986 250° West 337 388 12,000 -240 Descending Cleveland Center
08:31AM 42.4792 -82.6278 246° West 342 394 12,100  Climbing Cleveland Center
08:32AM 42.4472 -82.7139 243° Southwest 341 392 12,000  Descending Cleveland Center
08:32AM 42.4347 -82.7492 244° Southwest 340 391 12,100  Climbing Cleveland Center
08:33AM 42.4069 -82.8267 244° Southwest 336 387 12,000  Descending Cleveland Center
08:33AM 42.3950 -82.8653 247° West 338 389 12,100  Climbing Cleveland Center
08:34AM 42.3650 -82.9406 242° Southwest 337 388 12,000 -120 Descending Cleveland Center
08:34AM 42.3531 -82.9783 247° West 335 386 12,000  Level Cleveland Center
08:35AM 42.3194 -83.0683 243° Southwest 319 367 12,000 60 Level Cleveland Center
08:35AM 42.3161 -83.0806 250° West 289 333 12,100  Climbing Cleveland Center
08:36AM 42.2803 -83.1658 240° Southwest 259 298 12,000 -540 Descending Cleveland Center
08:37AM 42.2194 -83.2044 205° Southwest 272 313 11,100 -1,140 Descending Cleveland Center
08:37AM 42.2139 -83.2131 229° Southwest 273 314 10,900 -1,740 Descending Cleveland Center
08:38AM 42.1367 -83.2617 205° Southwest 255 293 9,000 -1,620 Descending Cleveland Center
08:39AM 42.0886 -83.2917 205° Southwest 252 290 7,800 -1,500 Descending Cleveland Center
08:39AM 42.0747 -83.3036 213° Southwest 240 276 7,500 -900 Descending Cleveland Center
08:40AM 42.0322 -83.3300 205° Southwest 229 264 6,900 -900 Descending Cleveland Center
08:40AM 42.0217 -83.3411 218° Southwest 219 252 6,600 -1,380 Descending Cleveland Center
08:41AM 41.9778 -83.3692 205° Southwest 222 255 5,500 -1,440 Descending Cleveland Center
08:41AM 41.9733 -83.3961 257° West 210 242 5,000 -1,380 Descending Cleveland Center
08:42AM 41.9889 -83.4317 300° West 194 223 4,100 -1,020 Descending Cleveland Center
08:42AM 42.0006 -83.4478 314° West 179 206 4,100 -120 Level Cleveland Center
08:43AM 42.0325 -83.4467 North 183 211 4,000 -120 Descending Cleveland Center
08:43AM 42.0489 -83.4461 North 148 170 4,000 -540 Level Cleveland Center
08:44AM 42.0756 -83.4389 11° North 159 183 3,500 -840 Descending Cleveland Center
08:44AM 42.0900 -83.4294 26° Northeast 162 186 3,200 -1,020 Descending Cleveland Center
08:45AM 42.1300 -83.4014 27° Northeast 150 173 2,300 -840 Descending Cleveland Center
08:46AM 42.1636 -83.3753 30° Northeast 139 160 1,500 -780 Descending Cleveland Center
08:47AM 42.1897 -83.3556 29° Northeast 143 165 900 -720 Descending Cleveland Center